Time;durP1;ratioP1;P1;durP2;ratioP2;P2;SDS_P1;SDS_P2;PMS_P1;PMS_P2;Temp;Humidity;BMP_temperature;BMP_pressure;BME280_temperature;BME280_humidity;BME280_pressure;Samples;Min_cycle;Max_cycle;Signal;HPM_P1;HPM_P2
2024/01/26 00:03:47;;;;;;;5.80;1.40;;;5.50;94.60;;;3.76;80.55;100722.16;10531849;27;96539;-82
2024/01/26 00:08:52;;;;;;;4.60;1.40;;;5.50;94.60;;;3.68;81.52;100731.56;10532215;27;97328;-83
2024/01/26 00:13:56;;;;;;;3.93;1.73;;;5.40;94.80;;;3.65;82.44;100744.91;10550284;27;96319;-83
2024/01/26 00:19:00;;;;;;;4.60;1.20;;;5.40;95.20;;;3.62;82.08;100751.25;10549490;27;96639;-83
2024/01/26 00:24:05;;;;;;;5.60;1.00;;;5.30;95.10;;;3.65;81.88;100763.31;10549947;27;96435;-83
2024/01/26 00:29:08;;;;;;;4.07;1.40;;;5.30;95.20;;;3.67;81.39;100759.63;10531421;27;96545;-83
2024/01/26 00:34:12;;;;;;;3.50;1.23;;;5.40;95.20;;;3.66;81.12;100757.13;10549046;27;96464;-83
2024/01/26 00:39:16;;;;;;;5.33;1.20;;;5.40;95.10;;;3.63;81.97;100752.91;10548802;27;97359;-82
2024/01/26 00:44:20;;;;;;;3.73;1.90;;;5.40;95.30;;;3.49;83.21;100748.66;10535899;27;96540;-82
2024/01/26 00:49:23;;;;;;;3.40;1.73;;;5.20;95.40;;;3.37;84.46;100740.81;10536415;27;98008;-83
2024/01/26 00:54:43;;;;;;;6.17;1.10;;;5.10;95.80;;;3.24;85.82;100738.19;10556751;27;96490;-84
2024/01/26 00:59:47;;;;;;;5.50;1.33;;;5.00;96.10;;;3.14;85.92;100756.38;10547892;27;96587;-83
2024/01/26 01:04:51;;;;;;;4.93;1.33;;;4.90;96.10;;;3.06;86.44;100768.34;10532179;27;97396;-83
2024/01/26 01:09:55;;;;;;;2.93;1.17;;;4.80;96.20;;;2.99;87.06;100767.09;10538572;27;96557;-83
2024/01/26 01:14:58;;;;;;;7.37;1.27;;;4.70;96.30;;;2.89;88.29;100765.13;10530100;27;96602;-84
2024/01/26 01:20:04;;;;;;;3.40;1.30;;;4.70;96.60;;;2.87;88.30;100759.09;10529281;27;96642;-83
2024/01/26 01:25:12;;;;;;;2.87;1.20;;;4.70;96.60;;;2.81;88.85;100770.03;10530974;27;96546;-83
2024/01/26 01:30:15;;;;;;;4.67;1.33;;;4.60;96.80;;;2.80;89.30;100776.22;10545519;27;96510;-83
2024/01/26 01:35:19;;;;;;;5.00;1.50;;;4.50;96.80;;;2.80;89.89;100763.09;10547028;27;96797;-83
2024/01/26 01:40:22;;;;;;;4.13;1.10;;;4.50;97.30;;;2.86;89.69;100756.59;10550624;27;96473;-83
2024/01/26 01:45:26;;;;;;;9.20;1.13;;;4.60;97.40;;;2.94;88.89;100770.06;10554670;27;96472;-83
2024/01/26 01:50:30;;;;;;;5.33;1.37;;;4.60;97.20;;;2.94;88.57;100763.00;10539035;27;96630;-82
2024/01/26 01:55:34;;;;;;;7.50;1.60;;;4.70;97.20;;;2.97;88.15;100763.75;10554149;27;96578;-82
2024/01/26 02:00:38;;;;;;;8.43;1.40;;;4.70;97.10;;;2.97;88.25;100758.50;10547173;27;96566;-83
2024/01/26 02:05:43;;;;;;;13.07;1.90;;;4.70;97.10;;;2.98;88.01;100760.16;10532731;27;96769;-83
2024/01/26 02:10:46;;;;;;;3.77;1.10;;;4.70;97.20;;;3.01;87.30;100759.97;10521289;27;97843;-83
2024/01/26 02:15:50;;;;;;;5.80;1.00;;;4.80;97.10;;;3.09;86.80;100770.78;10537099;27;96573;-83
2024/01/26 02:20:53;;;;;;;2.37;1.20;;;4.80;97.10;;;3.08;86.40;100782.22;10539635;27;96523;-83
2024/01/26 02:25:58;;;;;;;6.27;1.43;;;4.80;96.90;;;3.07;86.22;100798.94;10553206;27;96525;-83
2024/01/26 02:31:01;;;;;;;5.57;1.37;;;4.80;96.90;;;3.06;87.47;100795.47;10553132;27;96556;-83
2024/01/26 02:36:06;;;;;;;7.93;1.50;;;4.80;97.10;;;3.07;89.44;100793.69;10539205;27;98096;-83
2024/01/26 02:41:09;;;;;;;8.57;1.50;;;4.80;97.60;;;2.99;90.12;100788.09;10543550;27;96680;-83
2024/01/26 02:46:13;;;;;;;5.20;1.40;;;4.70;97.60;;;2.96;90.68;100794.41;10534501;27;97368;-83
2024/01/26 02:51:16;;;;;;;8.50;1.83;;;4.70;97.90;;;2.88;91.78;100775.72;10535223;27;96823;-83
2024/01/26 02:56:20;;;;;;;13.73;2.17;;;4.60;98.00;;;2.79;93.04;100768.47;10553135;27;96586;-83
2024/01/26 03:01:23;;;;;;;6.37;1.83;;;4.50;98.30;;;2.73;94.37;100767.09;10525370;27;96637;-83
2024/01/26 03:06:27;;;;;;;9.03;1.80;;;4.50;98.70;;;2.66;94.97;100777.16;10517656;27;96449;-83
2024/01/26 03:11:39;;;;;;;7.00;1.93;;;4.40;98.80;;;2.59;96.06;100785.56;10552296;27;96445;-82
2024/01/26 03:16:42;;;;;;;;;;;4.30;99.20;;;2.58;95.94;100799.59;10538760;27;96760;-83
2024/01/26 03:21:46;;;;;;;4.20;1.37;;;4.30;99.20;;;2.57;95.52;100816.28;10552708;27;97493;-83
2024/01/26 03:26:49;;;;;;;6.33;1.40;;;4.30;99.10;;;2.58;95.86;100815.34;10533571;27;96658;-83
2024/01/26 03:31:53;;;;;;;5.00;1.57;;;4.30;99.30;;;2.58;96.69;100820.59;10527702;27;96524;-83
2024/01/26 03:36:56;;;;;;;5.03;1.77;;;4.30;99.40;;;2.55;97.34;100826.06;10551706;27;96466;-83
2024/01/26 03:42:00;;;;;;;4.73;1.40;;;4.30;99.50;;;2.50;97.78;100822.88;10543194;27;96588;-82
2024/01/26 03:47:05;;;;;;;5.93;1.60;;;4.30;99.70;;;2.48;98.29;100832.66;10550377;27;96585;-82
2024/01/26 03:52:08;;;;;;;6.13;1.43;;;4.20;99.70;;;2.43;99.29;100827.69;10515863;27;96681;-82
2024/01/26 03:57:12;;;;;;;7.20;1.83;;;4.20;99.90;;;2.39;100.00;100826.19;10551028;27;96917;-82
2024/01/26 04:02:17;;;;;;;5.07;1.60;;;4.20;99.90;;;2.34;100.00;100829.16;10538293;27;96581;-83
2024/01/26 04:07:21;;;;;;;4.47;1.60;;;4.10;99.90;;;2.29;100.00;100841.72;10531802;27;96636;-83
2024/01/26 04:12:24;;;;;;;10.13;1.53;;;4.00;99.90;;;2.31;100.00;100838.97;10550563;27;96547;-83
2024/01/26 04:17:28;;;;;;;7.07;1.70;;;4.00;99.90;;;2.32;100.00;100841.50;10533921;27;97190;-84
2024/01/26 04:22:32;;;;;;;2.50;1.23;;;4.00;99.90;;;2.35;100.00;100836.06;10532522;27;96559;-83
2024/01/26 04:27:35;;;;;;;5.03;1.53;;;4.10;99.90;;;2.37;100.00;100849.06;10548900;27;96607;-83
2024/01/26 04:32:39;;;;;;;8.27;2.03;;;4.10;99.90;;;2.42;100.00;100860.13;10523947;27;97849;-83
2024/01/26 04:37:42;;;;;;;3.13;1.17;;;4.10;99.90;;;2.45;100.00;100880.03;10549470;27;97702;-83
2024/01/26 04:42:46;;;;;;;6.00;1.30;;;4.10;99.90;;;2.46;100.00;100884.34;10531401;27;96480;-83
2024/01/26 04:47:49;;;;;;;3.87;1.17;;;4.20;99.90;;;2.48;100.00;100872.00;10526382;27;96795;-84
2024/01/26 04:52:53;;;;;;;4.73;1.47;;;4.20;99.90;;;2.51;100.00;100884.91;10548856;27;96553;-84
2024/01/26 04:57:57;;;;;;;8.73;1.40;;;4.20;99.90;;;2.54;99.47;100890.81;10547877;27;96498;-83
2024/01/26 05:03:00;;;;;;;3.03;1.13;;;4.20;99.90;;;2.52;99.66;100894.44;10539986;27;96562;-83
2024/01/26 05:08:04;;;;;;;8.13;1.77;;;4.20;99.90;;;2.54;99.85;100906.53;10548266;27;96527;-83
2024/01/26 05:13:09;;;;;;;3.33;1.40;;;4.20;99.90;;;2.48;100.00;100909.56;10548385;27;96425;-83
2024/01/26 05:18:13;;;;;;;5.90;1.30;;;4.20;99.90;;;2.40;100.00;100912.69;10555777;27;96566;-83
2024/01/26 05:23:17;;;;;;;6.37;2.10;;;4.10;99.90;;;2.32;100.00;100914.94;10553578;27;97870;-83
2024/01/26 05:28:21;;;;;;;5.93;1.63;;;4.10;99.90;;;2.26;100.00;100907.47;10518858;27;96671;-84
2024/01/26 05:33:24;;;;;;;15.40;2.97;;;4.00;99.90;;;2.26;100.00;100923.19;10536562;27;97821;-83
2024/01/26 05:38:28;;;;;;;6.77;1.87;;;3.90;99.90;;;2.21;100.00;100924.41;10541807;27;96662;-83
2024/01/26 05:43:31;;;;;;;8.80;3.33;;;4.00;99.90;;;2.21;100.00;100927.88;10538630;27;97519;-84
2024/01/26 05:48:35;;;;;;;7.63;2.47;;;3.90;99.90;;;2.26;100.00;100931.06;10534277;27;96751;-83
2024/01/26 05:53:38;;;;;;;6.20;2.23;;;4.00;99.90;;;2.25;100.00;100915.44;10553269;27;96479;-83
2024/01/26 05:58:42;;;;;;;7.23;2.20;;;4.00;99.90;;;2.28;100.00;100907.34;10554960;27;96496;-87
2024/01/26 06:03:46;;;;;;;11.20;3.50;;;4.00;99.90;;;2.31;100.00;100907.16;10540499;27;98102;-85
2024/01/26 06:08:50;;;;;;;3.93;1.77;;;4.00;99.90;;;2.39;100.00;100902.28;10541696;27;96678;-84
2024/01/26 06:13:55;;;;;;;5.33;1.50;;;4.10;99.90;;;2.41;99.67;100898.63;10553533;27;96829;-84
2024/01/26 06:18:59;;;;;;;5.43;1.90;;;4.10;99.90;;;2.41;99.64;100895.16;10550461;27;96608;-83
2024/01/26 06:24:07;;;;;;;9.23;1.50;;;4.10;99.90;;;2.38;99.86;100896.19;10553263;27;96539;-85
2024/01/26 06:29:11;;;;;;;10.43;1.60;;;4.10;99.90;;;2.38;99.07;100890.09;10552193;27;96539;-84
2024/01/26 06:34:14;;;;;;;5.00;1.10;;;4.10;99.90;;;2.50;97.31;100883.22;10550054;27;96462;-84
2024/01/26 06:39:18;;;;;;;4.47;1.70;;;4.20;99.90;;;2.66;94.81;100900.50;10551195;27;97846;-83
2024/01/26 06:44:22;;;;;;;8.27;2.00;;;4.30;99.90;;;2.77;92.86;100896.34;10551515;27;97543;-84
2024/01/26 06:49:25;;;;;;;3.70;1.33;;;4.40;99.90;;;2.89;91.82;100909.50;10533277;27;97737;-84
2024/01/26 06:54:29;;;;;;;4.30;1.43;;;4.50;99.90;;;2.98;91.00;100915.06;10550748;27;96976;-83
2024/01/26 06:59:37;;;;;;;8.23;1.37;;;4.60;99.90;;;3.01;91.26;100907.84;10533743;27;96456;-83
2024/01/26 07:04:40;;;;;;;4.80;1.87;;;4.70;99.90;;;3.03;91.40;100910.34;10536882;27;96602;-85
2024/01/26 07:09:44;;;;;;;5.00;1.50;;;4.70;99.90;;;3.22;91.86;100922.16;10541792;27;96615;-83
2024/01/26 07:14:48;;;;;;;3.93;1.60;;;4.80;99.90;;;3.76;87.94;100911.44;10550231;27;96754;-84
2024/01/26 07:19:52;;;;;;;10.03;3.43;;;4.90;99.90;;;4.23;84.42;100914.31;10532739;27;96512;-83
2024/01/26 07:24:56;;;;;;;10.30;3.50;;;5.10;99.90;;;4.68;81.66;100925.06;10548378;27;96444;-84
2024/01/26 07:29:59;;;;;;;5.40;1.90;;;5.40;99.90;;;5.05;78.53;100931.97;10515857;27;96574;-83
2024/01/26 07:35:04;;;;;;;5.03;1.33;;;5.60;99.90;;;5.19;75.75;100924.81;10519840;27;96449;-84
2024/01/26 07:40:08;;;;;;;4.80;1.40;;;5.80;99.10;;;5.30;74.10;100935.38;10528725;27;96548;-84
2024/01/26 07:45:13;;;;;;;4.97;1.20;;;6.00;98.50;;;5.47;73.35;100947.28;10530696;27;96715;-84
2024/01/26 07:50:17;;;;;;;5.50;1.60;;;6.10;98.10;;;5.53;72.82;100939.75;10531571;27;96513;-84
2024/01/26 07:55:21;;;;;;;3.63;1.60;;;6.20;97.80;;;5.72;70.80;100938.34;10548252;27;96516;-84
2024/01/26 08:00:24;;;;;;;5.93;1.47;;;6.40;97.40;;;5.75;69.65;100936.28;10557831;27;96517;-84
2024/01/26 08:05:28;;;;;;;4.53;1.67;;;6.50;96.90;;;5.60;70.04;100930.41;10532822;27;96607;-84
2024/01/26 08:10:31;;;;;;;5.07;1.23;;;6.60;96.30;;;5.70;69.62;100938.47;10545986;27;97257;-85
2024/01/26 08:15:34;;;;;;;7.70;1.70;;;6.70;95.80;;;5.91;69.25;100938.59;10543353;27;96543;-85
2024/01/26 08:20:38;;;;;;;6.10;1.50;;;6.80;96.20;;;6.24;67.96;100939.53;10513690;27;96541;-84
2024/01/26 08:25:42;;;;;;;4.03;1.70;;;7.00;95.80;;;6.50;66.50;100925.09;10526160;27;97239;-84
2024/01/26 08:30:45;;;;;;;25.27;3.97;;;7.20;95.40;;;7.04;64.80;100926.00;10547677;27;96528;-84
2024/01/26 08:35:48;;;;;;;11.77;2.70;;;7.70;95.70;;;7.33;61.58;100929.69;10528575;27;96777;-84
2024/01/26 08:40:52;;;;;;;2.77;1.00;;;8.00;94.60;;;7.62;59.78;100929.88;10565768;27;96435;-84
2024/01/26 08:45:56;;;;;;;3.50;1.30;;;8.30;93.60;;;7.64;58.60;100922.63;10545964;27;97967;-84
2024/01/26 08:51:00;;;;;;;2.93;0.90;;;8.40;92.80;;;7.81;59.05;100938.88;10528698;27;96524;-84
2024/01/26 08:56:05;;;;;;;2.77;0.93;;;8.60;93.00;;;7.97;56.89;100939.22;10539902;27;96619;-85
2024/01/26 09:01:09;;;;;;;3.53;0.97;;;8.90;92.10;;;8.24;57.52;100960.66;10529988;27;96592;-85
2024/01/26 09:06:13;;;;;;;2.97;0.80;;;9.10;91.80;;;8.61;55.91;100957.44;10544223;27;96538;-84
2024/01/26 09:11:17;;;;;;;5.50;1.87;;;9.30;91.60;;;8.81;54.23;100950.34;10547906;27;96489;-84
2024/01/26 09:16:21;;;;;;;6.03;1.23;;;9.70;90.70;;;8.77;53.71;100944.50;10545494;27;96654;-85
2024/01/26 09:21:24;;;;;;;2.73;0.80;;;9.70;89.50;;;8.61;52.57;100948.66;10533037;27;96557;-85
2024/01/26 09:26:28;;;;;;;1.73;0.90;;;9.70;86.10;;;8.57;53.13;100937.47;10531217;27;96586;-84
2024/01/26 09:31:32;;;;;;;3.10;1.40;;;9.80;87.10;;;8.97;52.10;100949.81;10545900;27;97090;-84
2024/01/26 09:36:35;;;;;;;88.07;16.08;;;10.20;87.40;;;9.53;52.88;100939.25;10528275;27;96492;-85
2024/01/26 09:41:39;;;;;;;5.75;1.98;;;10.70;86.90;;;9.90;49.81;100957.91;10544669;27;96911;-85
2024/01/26 09:46:43;;;;;;;3.92;1.30;;;11.10;84.00;;;10.11;49.27;100956.84;10529322;27;97796;-85
2024/01/26 09:51:47;;;;;;;4.90;1.20;;;11.40;82.60;;;10.08;49.63;100950.00;10527864;27;96757;-85
2024/01/26 09:56:52;;;;;;;4.40;1.20;;;11.50;82.10;;;9.84;50.63;100947.88;10525914;27;96628;-84
2024/01/26 10:01:55;;;;;;;6.22;1.73;;;11.20;81.60;;;9.74;50.65;100943.56;10536725;27;96605;-84
2024/01/26 10:06:58;;;;;;;5.47;2.00;;;11.00;80.40;;;9.25;51.33;100932.22;10518377;27;96654;-85
2024/01/26 10:12:05;;;;;;;3.87;1.40;;;10.50;81.00;;;8.50;54.20;100939.84;10518279;27;96586;-84
2024/01/26 10:17:15;;;;;;;5.03;1.50;;;9.90;82.60;;;7.90;56.25;100932.78;10541186;27;97919;-84
2024/01/26 10:22:19;;;;;;;4.77;1.47;;;9.30;84.20;;;7.45;58.10;100922.53;10535558;27;96569;-83
2024/01/26 10:27:22;;;;;;;5.30;1.50;;;9.00;85.90;;;7.65;58.32;100928.75;10532832;27;96698;-84
2024/01/26 10:32:31;;;;;;;5.33;1.37;;;9.20;86.20;;;8.22;58.02;100912.28;10535735;27;96530;-84
2024/01/26 10:37:35;;;;;;;3.80;1.20;;;9.70;87.40;;;8.84;55.36;100910.31;10552583;27;96395;-85
2024/01/26 10:42:41;;;;;;;6.53;1.20;;;10.40;84.80;;;9.08;52.95;100909.91;10541642;27;96489;-85
2024/01/26 10:47:48;;;;;;;3.30;1.27;;;10.80;82.30;;;9.52;52.68;100913.72;10524100;27;96616;-84
2024/01/26 10:52:54;;;;;;;6.75;1.52;;;11.10;81.10;;;9.67;49.91;100908.81;10543997;27;96484;-85
2024/01/26 10:58:02;;;;;;;3.65;1.35;;;11.40;78.50;;;9.69;49.67;100914.78;10575589;27;96435;-85
2024/01/26 11:03:06;;;;;;;6.45;2.08;;;11.40;77.90;;;9.68;50.59;100929.06;10534469;27;96807;-85
2024/01/26 11:08:20;;;;;;;5.82;1.67;;;11.40;78.10;;;9.62;50.16;100919.00;10534534;27;96499;-85
2024/01/26 11:13:26;;;;;;;8.68;1.63;;;11.30;77.20;;;9.67;50.25;100905.31;10534462;27;96596;-84
2024/01/26 11:18:35;;;;;;;3.53;1.27;;;11.20;77.70;;;9.53;50.04;100893.31;10550061;27;96557;-85
2024/01/26 11:23:44;;;;;;;3.85;1.13;;;11.20;77.30;;;9.45;50.49;100885.25;10532745;27;97029;-84
2024/01/26 11:28:48;;;;;;;5.30;1.30;;;11.10;77.00;;;9.25;50.85;100872.06;10534737;27;96579;-84
2024/01/26 11:33:52;;;;;;;7.87;1.37;;;10.90;77.20;;;9.00;51.41;100873.50;10545079;27;96627;-85
2024/01/26 11:38:57;;;;;;;4.53;1.20;;;10.50;77.70;;;8.53;51.89;100862.75;10546336;27;98057;-84
2024/01/26 11:44:07;;;;;;;5.73;2.43;;;10.10;77.90;;;8.15;51.92;100879.38;10527951;27;96891;-84
2024/01/26 11:49:11;;;;;;;7.17;2.20;;;9.60;77.80;;;7.81;53.33;100875.38;10532866;27;96980;-84
2024/01/26 11:54:15;;;;;;;7.57;2.53;;;9.30;79.00;;;7.58;55.38;100877.38;10488723;27;98050;-84
2024/01/26 11:59:18;;;;;;;5.37;1.97;;;9.10;80.80;;;7.40;55.88;100871.84;10424581;27;96950;-83
2024/01/26 12:04:24;;;;;;;3.47;1.30;;;8.90;81.60;;;7.45;56.35;100856.44;10443843;27;96709;-84
2024/01/26 12:09:27;;;;;;;4.77;1.40;;;8.90;82.30;;;7.52;56.83;100847.00;10488634;27;96557;-84
2024/01/26 12:14:31;;;;;;;6.23;1.30;;;9.00;82.80;;;7.51;56.05;100843.50;10490205;27;96555;-83
2024/01/26 12:19:35;;;;;;;3.27;1.20;;;9.00;82.20;;;7.42;56.93;100830.22;10506474;27;96510;-84
2024/01/26 12:24:39;;;;;;;2.07;1.00;;;8.90;82.70;;;7.37;57.06;100822.69;10505061;27;96500;-84
2024/01/26 12:29:47;;;;;;;2.43;0.77;;;8.90;83.30;;;7.39;57.21;100822.56;10480358;27;96585;-84
2024/01/26 12:34:50;;;;;;;2.90;1.10;;;8.90;83.40;;;7.34;57.75;100808.91;10503353;27;96557;-83
2024/01/26 12:39:54;;;;;;;6.13;1.60;;;8.90;83.60;;;7.24;58.28;100809.69;10479793;27;96559;-83
2024/01/26 12:45:00;;;;;;;5.50;1.37;;;8.80;84.20;;;7.24;58.45;100803.56;10504698;27;96581;-84
2024/01/26 12:50:05;;;;;;;3.77;1.23;;;8.80;84.40;;;7.19;57.71;100798.66;10503705;27;96543;-84
2024/01/26 12:55:09;;;;;;;6.40;1.90;;;8.70;84.00;;;7.19;58.16;100790.75;10486335;27;96495;-84
2024/01/26 13:00:15;;;;;;;4.47;1.00;;;8.70;84.10;;;7.17;57.93;100784.75;10475554;27;96936;-83
2024/01/26 13:05:20;;;;;;;6.67;1.30;;;8.70;84.00;;;7.09;57.19;100774.00;10486088;27;97518;-84
2024/01/26 13:10:23;;;;;;;7.37;1.67;;;8.60;84.00;;;7.01;57.18;100783.53;10511371;27;98050;-84
2024/01/26 13:15:27;;;;;;;7.60;2.37;;;8.60;83.40;;;6.95;57.07;100775.16;10486298;27;96527;-84
2024/01/26 13:20:30;;;;;;;4.20;1.17;;;8.50;83.20;;;6.90;57.19;100779.19;10501729;27;96400;-84
2024/01/26 13:25:34;;;;;;;3.53;1.03;;;8.50;83.00;;;6.88;55.94;100773.19;10503314;27;96521;-84
2024/01/26 13:30:39;;;;;;;3.33;0.90;;;8.50;81.80;;;6.80;54.87;100770.38;10493383;27;96606;-84
2024/01/26 13:35:42;;;;;;;9.20;3.27;;;8.40;81.50;;;6.78;54.48;100788.13;10477747;27;98427;-84
2024/01/26 13:40:50;;;;;;;5.00;1.43;;;8.40;80.40;;;6.76;54.42;100798.00;10492824;27;98220;-84
2024/01/26 13:45:54;;;;;;;1.83;0.73;;;8.30;80.20;;;6.72;54.80;100776.31;10511846;27;96405;-84
2024/01/26 13:50:59;;;;;;;3.63;1.00;;;8.40;80.50;;;6.78;55.05;100780.19;10499716;27;98072;-84
2024/01/26 13:56:04;;;;;;;4.53;0.70;;;8.40;80.80;;;6.78;55.41;100791.63;10493011;27;96581;-84
2024/01/26 14:01:07;;;;;;;5.23;0.97;;;8.40;80.70;;;6.79;54.88;100789.84;10510945;27;96438;-83
2024/01/26 14:06:11;;;;;;;9.27;3.70;;;8.50;80.40;;;6.88;55.15;100808.38;10509482;27;96831;-83
2024/01/26 14:11:15;;;;;;;17.93;4.90;;;8.50;80.60;;;6.97;55.27;100812.88;10501397;27;96546;-83
2024/01/26 14:16:18;;;;;;;2.90;1.17;;;8.60;80.90;;;7.04;54.96;100818.50;10502211;27;97176;-84
2024/01/26 14:21:22;;;;;;;7.03;2.00;;;8.70;81.20;;;7.02;55.95;100812.50;10510119;27;96429;-83
2024/01/26 14:26:28;;;;;;;4.57;2.07;;;8.60;81.00;;;6.90;58.02;100805.63;10508366;27;96879;-83
2024/01/26 14:31:35;;;;;;;4.13;1.53;;;8.60;83.10;;;6.83;58.26;100799.16;10523236;27;97617;-83
2024/01/26 14:36:42;;;;;;;6.47;1.77;;;8.50;83.10;;;6.78;59.45;100796.91;10491690;27;96573;-83
2024/01/26 14:41:45;;;;;;;4.00;1.40;;;8.40;83.70;;;6.64;59.61;100787.50;10521417;27;96607;-84
2024/01/26 14:46:53;;;;;;;6.70;2.40;;;8.30;84.00;;;6.53;60.16;100798.09;10492045;27;96638;-83
2024/01/26 14:51:57;;;;;;;3.73;1.40;;;8.20;85.10;;;6.37;60.39;100779.22;10509376;27;97346;-83
2024/01/26 14:57:00;;;;;;;17.83;6.10;;;8.10;84.90;;;6.28;61.15;100780.81;10516706;27;96588;-83
2024/01/26 15:02:04;;;;;;;4.50;1.97;;;7.90;85.20;;;6.16;62.07;100776.53;10495182;27;96692;-83
2024/01/26 15:07:07;;;;;;;8.30;3.37;;;7.80;85.70;;;6.07;62.41;100766.75;10490616;27;96722;-83
2024/01/26 15:12:11;;;;;;;7.07;1.30;;;7.70;86.30;;;5.98;63.31;100760.41;10511901;27;97110;-83
2024/01/26 15:17:14;;;;;;;12.33;4.00;;;7.60;86.80;;;5.88;63.96;100751.56;10508333;27;96472;-84
2024/01/26 15:22:18;;;;;;;5.77;2.90;;;7.50;87.00;;;5.81;64.35;100745.06;10507611;27;96602;-83
2024/01/26 15:27:24;;;;;;;9.00;3.37;;;7.50;87.20;;;5.70;65.12;100738.06;10504990;27;96596;-83
2024/01/26 15:32:30;;;;;;;8.87;2.10;;;7.40;87.70;;;5.70;65.56;100755.63;10507904;27;96445;-84
2024/01/26 15:37:34;;;;;;;3.93;1.47;;;7.40;87.80;;;5.64;66.24;100757.84;10496104;27;97585;-83
2024/01/26 15:42:37;;;;;;;4.57;1.80;;;7.30;88.10;;;5.59;67.02;100745.97;10505667;27;96517;-83
2024/01/26 15:47:42;;;;;;;5.50;1.93;;;7.30;88.70;;;5.52;68.33;100755.34;10505567;27;96536;-83
2024/01/26 15:52:46;;;;;;;5.63;1.80;;;7.30;89.40;;;5.50;69.18;100744.88;10500792;27;97362;-84
2024/01/26 15:57:50;;;;;;;11.37;3.30;;;7.20;90.10;;;5.49;69.88;100740.59;10502910;27;96532;-83
2024/01/26 16:02:54;;;;;;;6.10;3.07;;;7.20;90.10;;;5.47;69.70;100733.78;10516306;27;97975;-83
2024/01/26 16:07:57;;;;;;;10.73;4.67;;;7.20;90.10;;;5.41;69.98;100740.38;10504438;27;96527;-83
2024/01/26 16:13:01;;;;;;;7.30;2.80;;;7.10;90.20;;;5.38;70.56;100725.63;10505870;27;96515;-83
2024/01/26 16:18:06;;;;;;;9.17;2.87;;;7.10;90.70;;;5.37;71.82;100715.19;10506379;27;96387;-84
2024/01/26 16:23:10;;;;;;;7.90;3.10;;;7.00;90.60;;;5.35;71.73;100709.22;10488237;27;96434;-83
2024/01/26 16:28:13;;;;;;;8.13;2.90;;;7.00;90.80;;;5.30;72.77;100703.47;10506458;27;96831;-83
2024/01/26 16:33:18;;;;;;;12.93;2.77;;;7.00;90.80;;;5.29;72.49;100705.28;10506452;27;97729;-84
2024/01/26 16:38:21;;;;;;;10.60;2.50;;;7.00;91.20;;;5.30;72.89;100682.41;10506062;27;97079;-83
2024/01/26 16:43:26;;;;;;;13.20;2.97;;;7.00;91.30;;;5.29;73.50;100688.63;10486331;27;96596;-84
2024/01/26 16:48:32;;;;;;;7.57;2.13;;;7.00;91.20;;;5.23;74.81;100670.69;10488356;27;96489;-83
2024/01/26 16:53:37;;;;;;;12.03;3.07;;;6.90;91.40;;;5.17;76.54;100663.25;10505435;27;96451;-83
2024/01/26 16:58:40;;;;;;;10.93;3.80;;;6.90;92.10;;;5.10;77.38;100653.22;10505980;27;96510;-83
2024/01/26 17:03:44;;;;;;;8.53;3.60;;;6.80;93.00;;;5.09;77.61;100656.78;10504208;27;96393;-83
2024/01/26 17:08:48;;;;;;;9.20;2.97;;;6.80;92.90;;;5.07;77.62;100658.69;10487748;27;96570;-83
2024/01/26 17:13:51;;;;;;;19.10;5.37;;;6.70;93.00;;;5.06;77.44;100648.28;10521900;27;97897;-83
2024/01/26 17:18:55;;;;;;;8.70;3.00;;;6.70;93.20;;;5.06;78.24;100646.50;10551742;27;96763;-83
2024/01/26 17:23:58;;;;;;;10.73;2.30;;;6.70;93.00;;;5.03;78.95;100649.34;10478103;27;96504;-83
2024/01/26 17:29:02;;;;;;;6.83;2.67;;;6.70;93.30;;;5.05;79.85;100655.38;10512496;27;97250;-83
2024/01/26 17:34:05;;;;;;;8.47;2.67;;;6.70;93.60;;;5.07;80.41;100658.69;10492853;27;96545;-83
2024/01/26 17:39:12;;;;;;;11.93;2.77;;;6.70;93.90;;;5.07;81.42;100652.59;10493798;27;96549;-83
2024/01/26 17:44:19;;;;;;;10.37;2.37;;;6.70;94.30;;;5.05;82.36;100649.25;10493422;27;96588;-83
2024/01/26 17:49:23;;;;;;;9.57;2.60;;;6.70;94.50;;;5.00;83.18;100630.34;10511811;27;96605;-83
2024/01/26 17:54:27;;;;;;;9.13;2.77;;;6.70;94.60;;;4.99;84.02;100645.31;10510103;27;96573;-84
2024/01/26 17:59:32;;;;;;;8.33;2.90;;;6.70;95.00;;;5.01;85.13;100645.19;10510033;27;96526;-84
2024/01/26 18:04:35;;;;;;;7.83;2.70;;;6.60;95.50;;;5.01;86.96;100632.84;10492512;27;96585;-83
2024/01/26 18:09:39;;;;;;;7.23;2.10;;;6.60;95.50;;;5.05;88.31;100629.03;10511744;27;96772;-83
2024/01/26 18:14:43;;;;;;;8.53;2.30;;;6.70;96.00;;;5.13;90.14;100606.50;10493145;27;96818;-83
2024/01/26 18:19:46;;;;;;;6.90;2.50;;;6.70;96.50;;;5.17;94.44;100618.47;10511343;27;96398;-84
2024/01/26 18:24:50;;;;;;;4.97;2.13;;;6.80;96.80;;;5.20;100.00;100621.69;10509695;27;96566;-83
2024/01/26 18:29:53;;;;;;;5.07;2.10;;;6.80;98.30;;;5.21;100.00;100615.44;10484935;27;96433;-82
2024/01/26 18:34:57;;;;;;;7.93;2.93;;;6.80;99.50;;;5.21;100.00;100598.78;10510669;27;96590;-82
2024/01/26 18:40:01;;;;;;;6.67;2.87;;;6.80;99.90;;;5.18;100.00;100599.91;10493830;27;96552;-82
2024/01/26 18:45:05;;;;;;;10.33;4.17;;;6.80;99.90;;;5.12;100.00;100575.84;10508804;27;96720;-82
2024/01/26 18:50:09;;;;;;;12.47;4.07;;;6.70;99.90;;;5.06;100.00;100559.56;10507807;27;96741;-82
2024/01/26 18:55:13;;;;;;;11.10;3.40;;;6.70;99.90;;;5.00;100.00;100559.22;10496505;27;98109;-83
2024/01/26 19:00:18;;;;;;;7.60;2.97;;;6.60;99.90;;;4.96;100.00;100561.25;10508309;27;96692;-81
2024/01/26 19:05:24;;;;;;;12.17;3.80;;;6.60;99.90;;;4.97;100.00;100557.66;10501354;27;97551;-82
2024/01/26 19:10:29;;;;;;;11.03;4.23;;;6.60;99.90;;;4.98;100.00;100548.00;10506057;27;97836;-82
2024/01/26 19:15:33;;;;;;;13.77;3.00;;;6.60;99.90;;;5.04;100.00;100564.13;10504344;27;97999;-82
2024/01/26 19:20:37;;;;;;;11.73;2.97;;;6.70;99.90;;;5.09;100.00;100553.19;10513372;27;97003;-82
2024/01/26 19:25:40;;;;;;;7.57;2.33;;;6.70;99.90;;;5.14;100.00;100548.41;10488473;27;96769;-82
2024/01/26 19:30:44;;;;;;;11.53;3.80;;;6.80;99.90;;;5.17;100.00;100542.91;10497028;27;96687;-82
2024/01/26 19:35:47;;;;;;;11.07;2.40;;;6.80;99.90;;;5.16;100.00;100514.03;10469090;27;96783;-82
2024/01/26 19:40:53;;;;;;;8.00;3.07;;;6.80;99.90;;;5.18;100.00;100505.03;10488025;27;96789;-83
2024/01/26 19:45:57;;;;;;;9.60;2.80;;;6.80;99.90;;;5.17;100.00;100513.09;10510917;27;97749;-82
2024/01/26 19:51:04;;;;;;;12.53;2.90;;;6.80;99.90;;;5.17;100.00;100499.91;10489909;27;96695;-83
2024/01/26 19:56:08;;;;;;;7.17;2.33;;;6.80;99.90;;;5.16;100.00;100499.09;10528057;27;96502;-83
2024/01/26 20:01:14;;;;;;;6.20;2.37;;;6.80;99.90;;;5.12;100.00;100495.00;10511033;27;97917;-84
2024/01/26 20:06:17;;;;;;;8.50;2.63;;;6.70;99.90;;;5.12;100.00;100502.91;10504276;27;96974;-83
2024/01/26 20:11:21;;;;;;;7.57;2.00;;;6.70;99.90;;;5.09;100.00;100508.41;10489396;27;96520;-83
2024/01/26 20:16:24;;;;;;;7.17;2.87;;;6.70;99.90;;;5.08;100.00;100493.59;10492847;27;96992;-84
2024/01/26 20:21:28;;;;;;;7.87;2.50;;;6.70;99.90;;;5.05;100.00;100486.78;10505369;27;97050;-83
2024/01/26 20:26:32;;;;;;;15.73;3.13;;;6.70;99.90;;;5.05;100.00;100505.22;10489310;27;97740;-83
2024/01/26 20:31:35;;;;;;;6.43;2.43;;;6.60;99.90;;;5.05;100.00;100485.94;10487305;27;96527;-83
2024/01/26 20:36:40;;;;;;;6.70;2.83;;;6.70;99.90;;;5.07;100.00;100495.38;10504904;27;96635;-83
2024/01/26 20:41:46;;;;;;;7.43;2.60;;;6.70;99.90;;;5.09;100.00;100487.34;10502538;27;96554;-83
2024/01/26 20:46:49;;;;;;;7.33;2.40;;;6.70;99.90;;;5.09;100.00;100493.44;10502775;27;96599;-83
2024/01/26 20:51:53;;;;;;;8.60;3.47;;;6.70;99.90;;;5.09;100.00;100501.34;10503396;27;96530;-84
2024/01/26 20:56:58;;;;;;;10.00;3.03;;;6.70;99.90;;;5.03;100.00;100498.38;10493722;27;96806;-83
2024/01/26 21:02:03;;;;;;;8.07;3.10;;;6.70;99.90;;;4.96;100.00;100497.22;10510085;27;97307;-84
2024/01/26 21:07:08;;;;;;;9.73;3.63;;;6.60;99.90;;;4.86;100.00;100489.25;10502612;27;96595;-85
2024/01/26 21:12:11;;;;;;;10.03;3.90;;;6.50;99.90;;;4.80;100.00;100471.31;10503935;27;96646;-84